Terminal Aerodrome Forecast
Issued by NWS

Home | Current Version | Previous Version | Graphics & Text | Print | Product List | Glossary Off
Versions: 1 2 3 4 5 6 7 8 9 10 11 12 13 14 15 16 17 18 19 20 21 22

000
FTUS43 KDDC 071712 AAD
TAFGCK
TAF AMD
KGCK 071712Z 0717/0812 04015G22KT 5SM -SN BR OVC050
     FM072000 04013G23KT P6SM OVC018
     FM080200 01011G17KT P6SM BKN050
     FM080400 36010KT P6SM SKC=

USA.gov is the U.S. government's official web portal to all federal, state and local government web resources and services.